Time;durP1;ratioP1;P1;durP2;ratioP2;P2;SDS_P1;SDS_P2;PMS_P1;PMS_P2;Temp;Humidity;BMP_temperature;BMP_pressure;BME280_temperature;BME280_humidity;BME280_pressure;Samples;Min_cycle;Max_cycle;Signal;HPM_P1;HPM_P2
2023/10/09 00:03:06;;;;;;;19.90;7.33;;;13.10;99.90;;;;;;4938287;29;20188;-28
2023/10/09 00:08:32;;;;;;;16.47;6.00;;;13.00;99.90;;;;;;4955956;29;20228;-28
2023/10/09 00:11:19;;;;;;;16.63;5.93;;;13.00;99.90;;;;;;4955589;29;20197;-28
2023/10/09 00:13:49;;;;;;;20.33;6.53;;;12.90;99.90;;;;;;4921502;29;20251;-28
2023/10/09 00:16:36;;;;;;;41.53;18.50;;;12.90;99.90;;;;;;4913712;29;20213;-28
2023/10/09 00:22:04;;;;;;;21.00;7.80;;;12.80;99.90;;;;;;4939400;28;20199;-28
2023/10/09 00:24:32;;;;;;;23.10;7.43;;;12.70;99.90;;;;;;4917809;29;20231;-29
2023/10/09 00:27:19;;;;;;;18.07;6.33;;;12.60;99.90;;;;;;4918342;29;20213;-28
2023/10/09 00:29:45;;;;;;;19.73;5.47;;;12.60;99.90;;;;;;4927779;29;20193;-28
2023/10/09 00:32:16;;;;;;;17.57;5.63;;;12.60;99.90;;;;;;4911206;29;20221;-28
2023/10/09 00:34:42;;;;;;;18.57;5.63;;;12.60;99.90;;;;;;4932725;29;20208;-28
2023/10/09 00:37:25;;;;;;;17.83;6.17;;;12.60;99.90;;;;;;4927473;29;20226;-28
2023/10/09 00:39:58;;;;;;;19.10;7.20;;;12.70;99.90;;;;;;4928283;29;20248;-28
2023/10/09 00:42:38;;;;;;;19.03;7.93;;;12.70;99.90;;;;;;4902942;29;20192;-28
2023/10/09 00:45:05;;;;;;;25.10;7.23;;;12.70;99.90;;;;;;4907321;29;20283;-28
2023/10/09 00:47:35;;;;;;;22.63;8.60;;;12.70;99.90;;;;;;4902152;29;20221;-28
2023/10/09 00:50:21;;;;;;;23.93;9.93;;;12.70;99.90;;;;;;4902977;29;20229;-28
2023/10/09 00:53:04;;;;;;;26.67;10.80;;;12.70;99.90;;;;;;4919633;29;20189;-28
2023/10/09 00:55:55;;;;;;;20.33;8.50;;;12.70;99.90;;;;;;4916466;29;20288;-29
2023/10/09 00:58:26;;;;;;;20.30;6.97;;;12.60;99.90;;;;;;4918647;29;20200;-28
2023/10/09 01:00:56;;;;;;;17.43;6.93;;;12.60;99.90;;;;;;4936024;29;20675;-28
2023/10/09 01:14:52;;;;;;;16.83;5.50;;;12.50;99.90;;;;;;4937318;29;20249;-29
2023/10/09 01:17:30;;;;;;;16.37;5.70;;;12.50;99.90;;;;;;4919870;29;20205;-28
2023/10/09 01:20:03;;;;;;;17.87;5.30;;;12.50;99.90;;;;;;4900846;29;20195;-27
2023/10/09 01:22:29;;;;;;;19.13;6.13;;;12.60;99.90;;;;;;4949187;29;20271;-28
2023/10/09 01:24:55;;;;;;;18.27;5.90;;;12.70;99.90;;;;;;4910583;29;20313;-28
2023/10/09 01:27:24;;;;;;;22.03;6.23;;;12.80;99.90;;;;;;4921175;29;20212;-28
2023/10/09 01:29:51;;;;;;;18.10;5.53;;;12.80;99.90;;;;;;4913826;29;20192;-27
2023/10/09 01:32:19;;;;;;;15.93;5.30;;;12.90;99.90;;;;;;4917649;29;20343;-28
2023/10/09 01:34:49;;;;;;;15.47;5.43;;;12.90;99.90;;;;;;4901753;29;20228;-28
2023/10/09 01:37:22;;;;;;;18.40;5.70;;;12.90;99.90;;;;;;4920493;29;20217;-27
2023/10/09 01:39:53;;;;;;;16.53;5.00;;;12.90;99.90;;;;;;4918905;29;20185;-28
2023/10/09 01:44:52;;;;;;;18.43;6.00;;;12.80;99.90;;;;;;4937263;29;20197;-28
2023/10/09 01:47:18;;;;;;;16.17;5.90;;;12.80;99.90;;;;;;4920502;29;20264;-28
2023/10/09 01:49:48;;;;;;;23.73;7.13;;;12.80;99.90;;;;;;4917439;29;20193;-28
2023/10/09 01:52:18;;;;;;;19.93;6.40;;;12.70;99.90;;;;;;4920837;29;20185;-28
2023/10/09 01:54:51;;;;;;;15.23;5.50;;;12.70;99.90;;;;;;4942484;29;20200;-30
2023/10/09 01:57:25;;;;;;;18.77;5.17;;;12.70;99.90;;;;;;4934351;29;20208;-28
2023/10/09 01:59:55;;;;;;;15.67;5.53;;;12.70;99.90;;;;;;4901044;29;20173;-28
2023/10/09 02:02:30;;;;;;;20.77;5.67;;;12.60;99.90;;;;;;4916936;29;20190;-28
2023/10/09 02:05:24;;;;;;;15.20;5.33;;;12.60;99.90;;;;;;4901677;29;20193;-28
2023/10/09 02:07:53;;;;;;;17.00;5.33;;;12.60;99.90;;;;;;4911411;29;20215;-28
2023/10/09 02:13:06;;;;;;;15.70;5.23;;;12.50;99.90;;;;;;4936984;29;20204;-28
2023/10/09 02:18:26;;;;;;;23.90;5.87;;;12.50;99.90;;;;;;4909994;29;20188;-27
2023/10/09 02:23:51;;;;;;;15.90;5.67;;;12.60;99.90;;;;;;4952070;29;20203;-28
2023/10/09 02:29:18;;;;;;;20.73;5.80;;;12.70;99.90;;;;;;4935784;29;20184;-27
2023/10/09 02:31:51;;;;;;;13.60;4.80;;;12.60;99.90;;;;;;4892394;29;20196;-27
2023/10/09 02:34:21;;;;;;;13.67;4.80;;;12.70;99.90;;;;;;4905236;29;20313;-27
2023/10/09 02:36:57;;;;;;;16.77;5.03;;;12.70;99.90;;;;;;4899218;29;20220;-28
2023/10/09 02:39:26;;;;;;;12.90;4.70;;;12.70;99.90;;;;;;4913270;29;20190;-27
2023/10/09 02:41:58;;;;;;;16.97;5.67;;;12.70;99.90;;;;;;4937471;29;20192;-28
2023/10/09 02:44:27;;;;;;;18.27;5.03;;;12.80;99.90;;;;;;4943987;29;20219;-28
2023/10/09 02:46:58;;;;;;;13.67;5.37;;;12.80;99.90;;;;;;4903621;29;20212;-28
2023/10/09 02:49:24;;;;;;;11.20;4.50;;;12.80;99.90;;;;;;4915385;29;20195;-28
2023/10/09 02:51:53;;;;;;;15.27;5.43;;;12.80;99.90;;;;;;4895180;29;20190;-28
2023/10/09 02:57:07;;;;;;;12.60;4.53;;;12.80;99.90;;;;;;4914696;29;20241;-27
2023/10/09 02:59:41;;;;;;;17.27;5.43;;;12.80;99.90;;;;;;4908508;29;20191;-28
2023/10/09 03:02:08;;;;;;;15.07;5.07;;;12.80;99.90;;;;;;4913625;29;20210;-28
2023/10/09 03:04:34;;;;;;;18.00;5.47;;;12.80;99.90;;;;;;4915174;29;20244;-28
2023/10/09 03:07:01;;;;;;;17.80;5.00;;;12.70;99.90;;;;;;4907796;29;20204;-27
2023/10/09 03:09:27;;;;;;;18.47;6.00;;;12.70;99.90;;;;;;4928131;29;20196;-27
2023/10/09 03:12:02;;;;;;;16.80;5.83;;;12.70;99.90;;;;;;4916802;29;20192;-28
2023/10/09 03:14:30;;;;;;;14.90;4.77;;;12.70;99.90;;;;;;4886911;29;20213;-27
2023/10/09 03:16:57;;;;;;;14.50;5.70;;;12.60;99.90;;;;;;4912557;29;20209;-28
2023/10/09 03:19:28;;;;;;;17.23;5.10;;;12.60;99.90;;;;;;4893806;29;20178;-27
2023/10/09 03:21:57;;;;;;;18.17;5.23;;;12.60;99.90;;;;;;4929781;29;20259;-28
2023/10/09 03:24:35;;;;;;;21.17;5.63;;;12.50;99.90;;;;;;4930880;29;20197;-27
2023/10/09 03:27:01;;;;;;;19.20;5.53;;;12.50;99.90;;;;;;4917464;29;20201;-28
2023/10/09 03:29:28;;;;;;;24.53;6.13;;;12.40;99.90;;;;;;4893870;29;20213;-27
2023/10/09 03:31:56;;;;;;;17.47;6.03;;;12.40;99.90;;;;;;4932945;29;20216;-27
2023/10/09 03:34:22;;;;;;;16.77;5.47;;;12.40;99.90;;;;;;4919436;29;20208;-27
2023/10/09 03:36:48;;;;;;;16.73;5.50;;;12.40;99.90;;;;;;4918566;29;20220;-27
2023/10/09 03:39:24;;;;;;;12.93;5.07;;;12.50;99.90;;;;;;4927561;29;20188;-28
2023/10/09 03:41:50;;;;;;;14.37;5.47;;;12.50;99.90;;;;;;4893922;29;20196;-27
2023/10/09 03:44:18;;;;;;;18.30;6.07;;;12.50;99.90;;;;;;4919514;29;20216;-27
2023/10/09 03:46:47;;;;;;;18.77;5.80;;;12.50;99.90;;;;;;4906621;29;20215;-27
2023/10/09 03:49:15;;;;;;;14.23;5.37;;;12.50;99.90;;;;;;4923140;29;20284;-29
2023/10/09 03:51:42;;;;;;;11.87;5.17;;;12.50;99.90;;;;;;4919336;29;20225;-28
2023/10/09 03:54:08;;;;;;;14.90;4.80;;;12.50;99.90;;;;;;4953052;29;20226;-28
2023/10/09 03:56:35;;;;;;;15.80;5.63;;;12.40;99.90;;;;;;4955479;28;20228;-28
2023/10/09 03:59:05;;;;;;;16.23;5.33;;;12.40;99.90;;;;;;4922268;29;20196;-27
2023/10/09 04:01:37;;;;;;;18.67;5.50;;;12.40;99.90;;;;;;4919575;29;20181;-28
2023/10/09 04:04:06;;;;;;;15.73;5.30;;;12.40;99.90;;;;;;4909359;29;20271;-27
2023/10/09 04:06:33;;;;;;;18.03;5.50;;;12.30;99.90;;;;;;4917561;29;20236;-28
2023/10/09 04:09:28;;;;;;;17.97;6.17;;;12.30;99.90;;;;;;4906359;29;20180;-28
2023/10/09 04:12:19;;;;;;;19.47;5.93;;;12.30;99.90;;;;;;4936203;29;20183;-27
2023/10/09 04:14:57;;;;;;;19.73;5.67;;;12.30;99.90;;;;;;4932726;29;20240;-28
2023/10/09 04:22:50;;;;;;;13.07;4.73;;;12.20;99.90;;;;;;4923060;29;20219;-27
2023/10/09 04:25:25;;;;;;;15.97;5.23;;;12.30;99.90;;;;;;4916154;29;20191;-28
2023/10/09 04:28:09;;;;;;;16.63;4.90;;;12.20;99.90;;;;;;4917891;29;20203;-27
2023/10/09 04:30:46;;;;;;;19.70;5.80;;;12.20;99.90;;;;;;4930437;29;20211;-27
2023/10/09 04:33:28;;;;;;;14.97;5.53;;;12.00;99.90;;;;;;4917969;29;20187;-28
2023/10/09 04:38:23;;;;;;;13.93;5.27;;;11.90;99.90;;;;;;4896298;29;20216;-30
2023/10/09 04:40:51;;;;;;;13.10;4.77;;;11.80;99.90;;;;;;4905201;29;20220;-30
2023/10/09 04:43:21;;;;;;;15.63;4.70;;;11.70;99.90;;;;;;4883992;29;20222;-30
2023/10/09 04:46:07;;;;;;;16.87;5.10;;;11.70;99.90;;;;;;4903407;29;20215;-30
2023/10/09 04:48:37;;;;;;;18.40;5.47;;;11.70;99.90;;;;;;4891462;29;20190;-30
2023/10/09 04:54:12;;;;;;;16.77;5.47;;;11.60;99.90;;;;;;4895343;29;20188;-30
2023/10/09 04:56:53;;;;;;;16.00;5.83;;;11.50;99.90;;;;;;4881271;29;20216;-31
2023/10/09 04:59:24;;;;;;;17.77;5.97;;;11.50;99.90;;;;;;4893941;29;20204;-31
2023/10/09 05:01:57;;;;;;;17.10;5.47;;;11.50;99.90;;;;;;4897687;29;20190;-30
2023/10/09 05:07:49;;;;;;;14.03;5.60;;;11.40;99.90;;;;;;4902737;29;20232;-30
2023/10/09 05:10:19;;;;;;;13.47;4.70;;;11.40;99.90;;;;;;4903739;29;20199;-30
2023/10/09 05:12:56;;;;;;;17.60;5.93;;;11.40;99.90;;;;;;4906720;29;20197;-30
2023/10/09 05:15:29;;;;;;;17.27;5.50;;;11.40;99.90;;;;;;4920711;29;20211;-30
2023/10/09 05:18:09;;;;;;;11.67;4.87;;;11.30;99.90;;;;;;4896075;29;20259;-30
2023/10/09 05:23:29;;;;;;;10.33;4.87;;;11.40;99.90;;;;;;4913170;29;20188;-30
2023/10/09 05:25:55;;;;;;;15.27;5.33;;;11.40;99.90;;;;;;4902937;29;20193;-31
2023/10/09 05:28:25;;;;;;;13.50;5.03;;;11.40;99.90;;;;;;4889628;29;20556;-30
2023/10/09 05:31:33;;;;;;;15.80;5.07;;;11.40;99.90;;;;;;4894474;29;20193;-31
2023/10/09 05:34:01;;;;;;;15.63;5.90;;;11.40;99.90;;;;;;4896805;29;20183;-30
2023/10/09 05:38:59;;;;;;;17.77;5.17;;;11.50;99.90;;;;;;4922717;29;20279;-30
2023/10/09 05:41:47;;;;;;;15.20;5.70;;;11.60;99.90;;;;;;4904222;29;20183;-30
2023/10/09 05:47:31;;;;;;;16.70;6.30;;;11.70;99.90;;;;;;4908813;29;20264;-30
2023/10/09 05:50:03;;;;;;;17.23;6.40;;;11.70;99.90;;;;;;4918141;29;20218;-30
2023/10/09 05:52:42;;;;;;;14.57;4.97;;;11.70;99.90;;;;;;4885472;29;20176;-30
2023/10/09 06:03:23;;;;;;;11.73;5.50;;;11.70;99.90;;;;;;4911967;29;20193;-30
2023/10/09 06:16:42;;;;;;;16.97;6.20;;;11.80;99.90;;;;;;4912458;29;20221;-30
2023/10/09 06:19:26;;;;;;;17.23;5.60;;;11.90;99.90;;;;;;4894110;29;20189;-31
2023/10/09 06:35:33;;;;;;;14.67;5.63;;;12.10;99.90;;;;;;4895751;29;20218;-30
2023/10/09 06:45:54;;;;;;;16.13;5.50;;;12.40;99.90;;;;;;4925365;29;20281;-31
2023/10/09 06:51:07;;;;;;;20.17;5.83;;;12.50;99.90;;;;;;4910246;29;20190;-30
2023/10/09 06:59:14;;;;;;;18.17;5.50;;;12.80;99.90;;;;;;4905419;29;20187;-31
2023/10/09 07:01:43;;;;;;;17.47;5.90;;;12.80;99.90;;;;;;4900806;29;20238;-31
2023/10/09 07:04:19;;;;;;;17.33;5.70;;;12.80;99.90;;;;;;4907957;29;20190;-31
2023/10/09 07:06:48;;;;;;;17.67;5.70;;;12.80;99.90;;;;;;4898336;29;20288;-30
2023/10/09 07:15:01;;;;;;;14.33;5.60;;;12.90;99.90;;;;;;4916931;29;20190;-30
2023/10/09 07:20:13;;;;;;;20.57;5.93;;;13.00;99.90;;;;;;4913167;29;20266;-30
2023/10/09 07:23:13;;;;;;;19.87;5.37;;;13.10;99.90;;;;;;4903205;29;20219;-30
2023/10/09 07:25:42;;;;;;;13.47;4.97;;;13.10;99.90;;;;;;4900626;29;20244;-31
2023/10/09 07:28:18;;;;;;;19.23;5.30;;;13.30;99.90;;;;;;4904679;29;20235;-31
2023/10/09 07:30:46;;;;;;;15.23;5.17;;;13.30;99.90;;;;;;4899061;29;20738;-31
2023/10/09 07:38:20;;;;;;;15.50;5.47;;;13.40;99.90;;;;;;4913549;29;20680;-30
2023/10/09 07:43:45;;;;;;;15.00;5.57;;;13.50;99.90;;;;;;4899191;29;20183;-30
2023/10/09 07:46:52;;;;;;;14.83;5.50;;;13.50;99.90;;;;;;4898303;29;20207;-31
2023/10/09 07:49:27;;;;;;;17.23;6.03;;;13.60;99.90;;;;;;4899455;29;20194;-31
2023/10/09 07:51:53;;;;;;;20.83;5.93;;;13.70;99.90;;;;;;4901438;29;20374;-31
2023/10/09 07:57:25;;;;;;;14.37;5.10;;;13.90;99.90;;;;;;4904686;29;20225;-31
2023/10/09 08:00:00;;;;;;;18.47;5.80;;;14.00;99.90;;;;;;4910200;29;20180;-30
2023/10/09 08:02:33;;;;;;;13.90;4.97;;;14.00;99.90;;;;;;4897290;29;20194;-31
2023/10/09 08:12:58;;;;;;;17.87;6.07;;;14.20;99.90;;;;;;4915972;29;20195;-32
2023/10/09 08:15:51;;;;;;;16.43;5.37;;;14.20;99.90;;;;;;4896973;29;20290;-32
2023/10/09 08:18:27;;;;;;;17.50;5.57;;;14.20;99.90;;;;;;4895000;29;20215;-31
2023/10/09 08:24:35;;;;;;;19.97;5.30;;;14.50;99.90;;;;;;4898423;29;20259;-32
2023/10/09 08:26:12;;;;;;;18.03;5.17;;;14.60;99.90;;;;;;4900398;29;20192;-32
2023/10/09 08:28:43;;;;;;;14.43;5.03;;;14.70;99.90;;;;;;4916132;29;20269;-31
2023/10/09 08:31:34;;;;;;;19.77;5.70;;;14.80;99.90;;;;;;4906335;29;20179;-31
2023/10/09 08:34:03;;;;;;;17.03;5.63;;;14.90;99.90;;;;;;4899572;29;20194;-31
2023/10/09 08:36:36;;;;;;;14.03;5.50;;;15.00;99.90;;;;;;4897830;29;20226;-31
2023/10/09 08:39:14;;;;;;;16.00;5.47;;;15.10;99.90;;;;;;4910740;29;20755;-31
2023/10/09 08:41:40;;;;;;;16.40;5.73;;;15.20;99.90;;;;;;4911780;29;20183;-31
2023/10/09 08:44:07;;;;;;;14.67;5.30;;;15.30;99.90;;;;;;4896677;29;20218;-31
2023/10/09 08:46:36;;;;;;;16.10;5.13;;;15.40;99.90;;;;;;4900977;29;20207;-32
2023/10/09 08:49:10;;;;;;;17.13;5.63;;;15.50;99.90;;;;;;4899346;29;20184;-32
2023/10/09 08:51:37;;;;;;;16.00;5.37;;;15.60;99.90;;;;;;4896280;29;20194;-32
2023/10/09 08:54:04;;;;;;;17.73;6.10;;;15.70;99.90;;;;;;4912768;29;20180;-32
2023/10/09 08:56:30;;;;;;;15.53;5.53;;;15.80;99.90;;;;;;4897487;29;20242;-32
2023/10/09 08:59:02;;;;;;;12.87;5.90;;;15.90;99.90;;;;;;4917607;29;20187;-31
2023/10/09 09:01:31;;;;;;;15.30;5.97;;;16.00;99.90;;;;;;4915276;29;20179;-31
2023/10/09 09:03:59;;;;;;;15.23;5.77;;;16.10;99.90;;;;;;4908600;29;20191;-31
2023/10/09 09:06:26;;;;;;;14.40;5.33;;;16.20;99.90;;;;;;4910002;29;20356;-31
2023/10/09 09:08:59;;;;;;;12.25;4.93;;;16.30;99.90;;;;;;4896433;29;20210;-31
2023/10/09 09:11:25;;;;;;;15.07;4.90;;;16.40;99.90;;;;;;4920675;29;20202;-30
2023/10/09 09:14:04;;;;;;;12.88;5.90;;;16.50;99.90;;;;;;4915020;29;20265;-31
2023/10/09 09:16:32;;;;;;;12.07;5.75;;;16.60;99.90;;;;;;4904539;29;20219;-31
2023/10/09 09:19:04;;;;;;;15.60;5.30;;;16.80;99.90;;;;;;4899272;29;20190;-31
2023/10/09 09:21:42;;;;;;;21.00;5.20;;;16.90;99.90;;;;;;4911242;29;20187;-31
2023/10/09 09:26:45;;;;;;;13.02;5.20;;;17.10;99.90;;;;;;4907240;29;20210;-31
2023/10/09 09:29:13;;;;;;;18.63;5.30;;;17.20;99.90;;;;;;4902767;29;20722;-30
2023/10/09 09:31:57;;;;;;;19.70;5.13;;;17.40;99.90;;;;;;4895579;29;20183;-31
2023/10/09 09:34:28;;;;;;;20.40;5.78;;;17.50;99.90;;;;;;4901078;29;20187;-31
2023/10/09 09:36:58;;;;;;;23.48;6.25;;;17.60;99.90;;;;;;4895573;29;20219;-31
2023/10/09 09:39:28;;;;;;;18.20;5.85;;;17.60;99.90;;;;;;4911816;29;20183;-31
2023/10/09 09:44:57;;;;;;;18.35;5.30;;;17.80;99.90;;;;;;4891096;29;20230;-31
2023/10/09 09:47:29;;;;;;;15.05;5.25;;;17.90;99.90;;;;;;4896247;29;20700;-31
2023/10/09 09:49:59;;;;;;;16.33;5.28;;;18.00;99.90;;;;;;4898673;29;20187;-31
2023/10/09 09:52:40;;;;;;;17.83;5.82;;;18.10;99.90;;;;;;4895855;29;20188;-31
2023/10/09 09:55:22;;;;;;;11.85;5.30;;;18.30;99.90;;;;;;4907113;29;20211;-31
2023/10/09 09:57:51;;;;;;;16.95;5.10;;;18.30;99.90;;;;;;4895135;29;20207;-31
2023/10/09 10:00:30;;;;;;;17.90;5.20;;;18.40;99.90;;;;;;4910525;29;20198;-31
2023/10/09 10:03:01;;;;;;;14.60;5.35;;;18.60;99.90;;;;;;4901275;29;20191;-32
2023/10/09 10:05:29;;;;;;;14.07;5.00;;;18.70;99.90;;;;;;4897431;29;20195;-31
2023/10/09 10:07:59;;;;;;;13.32;4.43;;;18.80;99.90;;;;;;4899502;29;20233;-31
2023/10/09 10:10:47;;;;;;;12.65;4.57;;;19.00;99.90;;;;;;4913775;29;20234;-31
2023/10/09 10:13:23;;;;;;;13.18;4.07;;;19.20;99.90;;;;;;4910675;29;20262;-31
2023/10/09 10:15:56;;;;;;;14.00;3.88;;;19.40;99.90;;;;;;4891062;29;20238;-32
2023/10/09 10:18:23;;;;;;;16.02;4.72;;;19.70;99.90;;;;;;4907569;29;20186;-32
2023/10/09 10:21:17;;;;;;;14.65;4.28;;;20.00;99.90;;;;;;4907561;29;20187;-31
2023/10/09 10:23:47;;;;;;;15.02;4.93;;;20.20;99.90;;;;;;4909601;29;20179;-31
2023/10/09 10:26:33;;;;;;;12.57;4.20;;;20.40;99.90;;;;;;4909270;29;20193;-31
2023/10/09 10:29:22;;;;;;;15.80;4.60;;;20.60;99.90;;;;;;4913893;29;20209;-31
2023/10/09 10:31:51;;;;;;;16.42;4.30;;;20.80;99.90;;;;;;4891308;29;20195;-31
2023/10/09 10:34:23;;;;;;;17.27;4.28;;;20.90;99.90;;;;;;4909979;29;20186;-31
2023/10/09 12:04:59;;;;;;;14.70;4.30;;;23.30;99.90;;;;;;4936546;29;20226;-91
2023/10/09 12:07:26;;;;;;;19.05;4.95;;;23.20;99.90;;;;;;4931045;29;20206;-87
2023/10/09 12:09:56;;;;;;;15.63;4.75;;;23.20;99.90;;;;;;4933186;29;20186;-87
2023/10/09 12:12:26;;;;;;;18.45;4.60;;;23.20;99.90;;;;;;4929215;29;20214;-87
2023/10/09 12:14:53;;;;;;;15.65;4.30;;;23.20;99.90;;;;;;4954712;29;20337;-87
2023/10/09 12:17:19;;;;;;;20.83;4.53;;;23.10;99.90;;;;;;4938620;29;20225;-89
2023/10/09 12:19:45;;;;;;;15.68;4.47;;;23.10;99.90;;;;;;4919710;29;20220;-88
2023/10/09 12:22:15;;;;;;;17.67;4.20;;;23.10;99.90;;;;;;4944104;28;20681;-89
2023/10/09 12:24:43;;;;;;;21.58;4.25;;;23.10;99.90;;;;;;4931400;29;20183;-89
2023/10/09 12:27:12;;;;;;;21.95;4.50;;;23.00;99.90;;;;;;4918975;29;20201;-89
2023/10/09 12:29:44;;;;;;;18.25;3.80;;;23.00;99.90;;;;;;4944769;29;20205;-88
2023/10/09 12:32:11;;;;;;;21.42;5.57;;;23.00;99.90;;;;;;4956389;28;20205;-89
2023/10/09 12:34:38;;;;;;;15.32;5.10;;;23.00;99.90;;;;;;4938198;28;20220;-89
2023/10/09 12:37:06;;;;;;;19.08;4.90;;;23.00;99.90;;;;;;4913879;29;20202;-89
2023/10/09 12:39:39;;;;;;;18.05;5.32;;;23.10;99.90;;;;;;4940254;29;20217;-89
2023/10/09 12:42:06;;;;;;;21.33;5.38;;;23.10;99.90;;;;;;4938457;29;20218;-89
2023/10/09 12:44:38;;;;;;;21.05;6.10;;;23.20;99.90;;;;;;4925598;29;20199;-89
2023/10/09 12:47:11;;;;;;;20.50;5.53;;;23.30;99.90;;;;;;4924808;29;20186;-89
2023/10/09 12:49:40;;;;;;;25.27;6.07;;;23.40;99.90;;;;;;4934883;29;20218;-90
2023/10/09 12:52:16;;;;;;;17.83;5.25;;;23.40;99.90;;;;;;4919410;29;20237;-90
2023/10/09 12:54:46;;;;;;;21.45;5.78;;;23.50;99.90;;;;;;4944968;29;20296;-95
2023/10/09 12:57:13;;;;;;;28.10;5.80;;;23.60;99.90;;;;;;4970680;28;20197;-94
2023/10/09 12:59:45;;;;;;;22.90;5.85;;;23.70;99.90;;;;;;4971818;29;20190;-95
2023/10/09 13:02:28;;;;;;;22.23;5.10;;;23.80;99.90;;;;;;4955571;29;20198;-95
2023/10/09 13:04:59;;;;;;;22.42;6.22;;;24.00;99.90;;;;;;4968429;29;20181;-96
2023/10/09 13:07:26;;;;;;;19.95;5.28;;;24.20;99.90;;;;;;4969531;29;20193;-94
2023/10/09 13:10:12;;;;;;;22.75;5.35;;;24.40;99.90;;;;;;4963388;29;20186;-96
2023/10/09 13:12:41;;;;;;;26.00;5.22;;;24.50;99.90;;;;;;4952770;29;20224;-94
2023/10/09 13:15:09;;;;;;;24.45;5.05;;;24.50;99.90;;;;;;4957031;29;20267;-96
2023/10/09 13:44:41;;;;;;;18.40;5.13;;;25.40;99.90;;;;;;4952192;29;20212;-89
2023/10/09 13:47:18;;;;;;;24.38;5.40;;;25.40;99.90;;;;;;4918096;29;20249;-90
2023/10/09 13:49:53;;;;;;;19.42;5.25;;;25.40;99.90;;;;;;4933564;29;20200;-90
2023/10/09 13:52:21;;;;;;;20.10;5.03;;;25.50;99.90;;;;;;4938831;29;20216;-91
2023/10/09 13:54:49;;;;;;;23.90;5.22;;;25.50;99.90;;;;;;4920611;29;20214;-91
2023/10/09 13:57:22;;;;;;;24.58;5.65;;;25.50;99.90;;;;;;4951757;28;20189;-91
2023/10/09 13:59:51;;;;;;;23.17;5.30;;;25.50;99.90;;;;;;4940479;29;20236;-94
2023/10/09 14:02:18;;;;;;;20.30;4.80;;;25.60;99.90;;;;;;4931510;29;20213;-92
2023/10/09 14:04:52;;;;;;;20.05;5.43;;;25.60;99.90;;;;;;4925458;29;20217;-94
2023/10/09 14:07:20;;;;;;;20.20;5.40;;;25.60;99.90;;;;;;4921734;23;20344;-32
2023/10/09 14:10:30;;;;;;;21.35;5.15;;;25.50;99.90;;;;;;4930262;29;20193;-32
2023/10/09 14:12:34;;;;;;;23.85;4.85;;;25.50;99.90;;;;;;4928628;29;20189;-32
2023/10/09 14:15:03;;;;;;;19.10;5.50;;;25.50;99.90;;;;;;4939378;29;20213;-43
2023/10/09 14:17:29;;;;;;;21.88;5.38;;;25.50;99.90;;;;;;4939520;29;20361;-43
2023/10/09 14:22:29;;;;;;;19.83;5.80;;;25.40;99.90;;;;;;4949380;28;20220;-33
2023/10/09 14:24:55;;;;;;;18.58;5.15;;;25.30;99.90;;;;;;4950402;28;20221;-39
2023/10/09 14:27:26;;;;;;;18.17;4.82;;;25.20;99.90;;;;;;4959203;28;20239;-40
2023/10/09 14:29:59;;;;;;;22.17;5.78;;;25.10;99.90;;;;;;4944988;28;20205;-39
2023/10/09 14:32:43;;;;;;;17.52;4.93;;;24.90;99.90;;;;;;4940146;29;20185;-40
2023/10/09 14:35:13;;;;;;;19.65;5.03;;;24.90;99.90;;;;;;4949067;28;20208;-37
2023/10/09 14:37:42;;;;;;;16.15;4.97;;;24.90;99.90;;;;;;4934371;29;20185;-37
2023/10/09 14:40:12;;;;;;;19.70;5.97;;;24.90;99.90;;;;;;4939166;28;20211;-40
2023/10/09 14:42:43;;;;;;;21.98;6.28;;;24.90;99.90;;;;;;4968256;28;20185;-40
2023/10/09 14:45:15;;;;;;;19.67;5.68;;;24.80;99.90;;;;;;4931728;29;20277;-39
2023/10/09 14:47:46;;;;;;;18.13;5.28;;;24.70;99.90;;;;;;4936300;29;20193;-37
2023/10/09 14:50:13;;;;;;;21.58;5.82;;;24.60;99.90;;;;;;4921614;29;20220;-38
2023/10/09 14:52:40;;;;;;;19.38;5.35;;;24.50;99.90;;;;;;4934483;29;20185;-39
2023/10/09 14:55:06;;;;;;;19.55;5.07;;;24.50;99.90;;;;;;4938440;28;20212;-39
2023/10/09 14:57:33;;;;;;;21.52;5.30;;;24.50;99.90;;;;;;4938357;28;20188;-39
2023/10/09 15:00:13;;;;;;;23.30;5.57;;;24.40;99.90;;;;;;4920446;28;20714;-38
2023/10/09 15:02:39;;;;;;;18.42;5.38;;;24.40;99.90;;;;;;4937345;28;20185;-40
2023/10/09 15:05:10;;;;;;;19.13;4.95;;;24.30;99.90;;;;;;4919140;28;20213;-40
2023/10/09 15:07:38;;;;;;;19.02;4.63;;;24.20;99.90;;;;;;4922986;29;20192;-40
2023/10/09 15:10:05;;;;;;;26.00;5.47;;;24.20;99.90;;;;;;4917080;28;20209;-41
2023/10/09 15:12:31;;;;;;;19.75;5.13;;;24.20;99.90;;;;;;4935086;29;20189;-40
2023/10/09 15:14:57;;;;;;;21.45;5.22;;;24.20;99.90;;;;;;4941013;28;20215;-37
2023/10/09 15:17:24;;;;;;;15.63;4.90;;;24.10;99.90;;;;;;4947332;28;20196;-38
2023/10/09 15:19:56;;;;;;;14.65;4.88;;;24.10;99.90;;;;;;4950437;28;20177;-39
2023/10/09 15:22:22;;;;;;;22.90;5.25;;;24.20;99.90;;;;;;4935059;29;20204;-41
2023/10/09 15:24:48;;;;;;;18.13;4.78;;;24.10;99.90;;;;;;4933203;28;20201;-35
2023/10/09 15:27:15;;;;;;;18.08;4.80;;;24.10;99.90;;;;;;4960067;28;20203;-36
2023/10/09 15:29:44;;;;;;;19.15;5.43;;;24.00;99.90;;;;;;4957707;28;20180;-40
2023/10/09 15:32:22;;;;;;;19.48;4.80;;;24.00;99.90;;;;;;4939214;28;20193;-40
2023/10/09 15:34:48;;;;;;;20.10;5.20;;;24.10;99.90;;;;;;4933446;28;20212;-38
2023/10/09 15:37:14;;;;;;;13.75;4.70;;;24.10;99.90;;;;;;4925904;28;20189;-38
2023/10/09 15:39:41;;;;;;;19.88;5.20;;;24.10;99.90;;;;;;4952924;28;20188;-38
2023/10/09 15:42:07;;;;;;;18.20;4.68;;;24.10;99.90;;;;;;4932199;28;20192;-37
2023/10/09 15:44:36;;;;;;;16.77;4.15;;;24.00;99.90;;;;;;4937957;29;20191;-37
2023/10/09 15:47:08;;;;;;;16.17;4.40;;;23.90;99.90;;;;;;4941693;28;20177;-34
2023/10/09 15:49:38;;;;;;;23.08;5.60;;;23.90;99.90;;;;;;4936281;29;20276;-38
2023/10/09 15:52:07;;;;;;;13.98;4.13;;;23.80;99.90;;;;;;4934660;28;20186;-37
2023/10/09 15:54:33;;;;;;;25.08;5.32;;;23.70;99.90;;;;;;4944707;28;20196;-35
2023/10/09 15:56:59;;;;;;;14.65;4.03;;;23.60;99.90;;;;;;4929546;28;20199;-39
2023/10/09 15:59:25;;;;;;;17.67;4.72;;;23.50;99.90;;;;;;4920449;29;20189;-37
2023/10/09 16:01:53;;;;;;;19.73;4.75;;;23.40;99.90;;;;;;4943087;28;20236;-38
2023/10/09 16:04:19;;;;;;;16.65;4.55;;;23.30;99.90;;;;;;4933590;28;20177;-40
2023/10/09 16:06:46;;;;;;;16.85;4.07;;;23.20;99.90;;;;;;4936092;29;20240;-39
2023/10/09 16:09:21;;;;;;;17.40;4.15;;;23.10;99.90;;;;;;4955079;28;20189;-40
2023/10/09 16:11:48;;;;;;;15.25;3.95;;;23.00;99.90;;;;;;4936109;29;20224;-37
2023/10/09 16:14:17;;;;;;;17.40;4.72;;;22.90;99.90;;;;;;4942980;29;20213;-39
2023/10/09 16:16:45;;;;;;;16.95;4.35;;;22.70;99.90;;;;;;4962018;28;20227;-39
2023/10/09 16:19:11;;;;;;;13.73;4.55;;;22.50;99.90;;;;;;4936063;28;20173;-35
2023/10/09 16:21:39;;;;;;;21.48;4.30;;;22.40;99.90;;;;;;4950050;29;20307;-36
2023/10/09 16:24:09;;;;;;;15.25;4.03;;;22.30;99.90;;;;;;4948094;28;20181;-39
2023/10/09 16:26:45;;;;;;;9.60;3.83;;;22.20;99.90;;;;;;4935380;29;20196;-40
2023/10/09 16:29:12;;;;;;;16.42;4.90;;;22.00;99.90;;;;;;4936352;28;20268;-39
2023/10/09 16:31:39;;;;;;;13.07;3.72;;;21.90;99.90;;;;;;4954737;28;20213;-33
2023/10/09 16:34:09;;;;;;;20.02;4.57;;;21.90;99.90;;;;;;4963427;28;20204;-37
2023/10/09 16:36:38;;;;;;;15.57;4.82;;;21.80;99.90;;;;;;4927089;28;20232;-38
2023/10/09 16:39:18;;;;;;;19.73;4.78;;;21.60;99.90;;;;;;4924223;28;20182;-39
2023/10/09 16:41:46;;;;;;;15.75;4.50;;;21.60;99.90;;;;;;4941578;29;20252;-35
2023/10/09 16:44:16;;;;;;;15.15;4.22;;;21.50;99.90;;;;;;4951996;28;20272;-40
2023/10/09 16:46:46;;;;;;;14.90;4.97;;;21.40;99.90;;;;;;4910558;29;20192;-37
2023/10/09 16:49:18;;;;;;;15.38;4.30;;;21.30;99.90;;;;;;4919749;28;20301;-40
2023/10/09 16:51:44;;;;;;;12.30;4.00;;;21.20;99.90;;;;;;4952863;28;20287;-40
2023/10/09 16:54:15;;;;;;;15.38;4.15;;;21.00;99.90;;;;;;4923890;28;20263;-35
2023/10/09 16:56:47;;;;;;;14.18;3.80;;;20.90;99.90;;;;;;4935406;28;20235;-40
2023/10/09 16:59:14;;;;;;;14.15;3.67;;;20.90;99.90;;;;;;4925009;28;20193;-39
2023/10/09 17:01:41;;;;;;;12.40;3.60;;;20.80;99.90;;;;;;4953564;28;20260;-39
2023/10/09 17:04:11;;;;;;;15.68;4.28;;;20.70;99.90;;;;;;4940326;28;20239;-34
2023/10/09 17:06:39;;;;;;;16.58;3.90;;;20.60;99.90;;;;;;4936652;29;20193;-39
2023/10/09 17:09:08;;;;;;;16.77;4.35;;;20.40;99.90;;;;;;4930471;28;20216;-37
2023/10/09 17:11:39;;;;;;;18.75;3.63;;;20.30;99.90;;;;;;4943010;28;20223;-39
2023/10/09 17:14:05;;;;;;;12.68;3.92;;;20.20;99.90;;;;;;4952262;28;20193;-38
2023/10/09 17:16:32;;;;;;;16.00;3.80;;;20.10;99.90;;;;;;4920932;29;20209;-37
2023/10/09 17:19:03;;;;;;;17.30;3.70;;;20.00;99.90;;;;;;4919636;28;20182;-35